createdAt,value
2018-06-07T00:02:14.914Z,24.03
2018-06-07T00:04:43.431Z,20.90
2018-06-07T00:07:11.599Z,23.70
2018-06-07T00:09:39.784Z,27.77
2018-06-07T00:12:08.256Z,23.73
2018-06-07T00:14:36.467Z,22.90
2018-06-07T00:17:05.118Z,27.13
2018-06-07T00:19:33.569Z,25.03
2018-06-07T00:22:02.029Z,28.60
2018-06-07T00:24:30.475Z,22.87
2018-06-07T00:26:58.932Z,12.37
2018-06-07T00:29:27.388Z,12.20
2018-06-07T00:31:55.832Z,11.90
2018-06-07T00:34:24.305Z,28.17
2018-06-07T00:36:52.771Z,28.40
2018-06-07T00:39:21.266Z,26.43
2018-06-07T00:41:49.717Z,23.37
2018-06-07T00:44:17.857Z,26.27
2018-06-07T00:46:46.343Z,28.03
2018-06-07T00:49:14.865Z,30.97
2018-06-07T00:51:43.309Z,35.70
2018-06-07T00:54:12.074Z,31.00
2018-06-07T00:56:51.997Z,16.30
2018-06-07T00:59:20.460Z,16.53
2018-06-07T01:01:49.052Z,16.70
2018-06-07T01:04:17.552Z,17.83
2018-06-07T01:06:46.071Z,16.47
2018-06-07T01:09:14.537Z,17.67
2018-06-07T01:11:42.992Z,18.63
2018-06-07T01:14:11.452Z,19.90
2018-06-07T01:16:39.578Z,19.37
2018-06-07T01:19:08.034Z,20.73
2018-06-07T01:21:36.570Z,19.60
2018-06-07T01:24:05.082Z,35.57
2018-06-07T01:26:33.573Z,20.67
2018-06-07T01:29:02.023Z,20.30
2018-06-07T01:32:24.134Z,20.27
2018-06-07T01:34:52.571Z,22.13
2018-06-07T01:37:21.046Z,22.60
2018-06-07T01:39:49.489Z,22.20
2018-06-07T01:42:17.960Z,21.43
2018-06-07T01:44:46.428Z,22.07
2018-06-07T01:47:14.901Z,21.90
2018-06-07T01:49:43.336Z,22.07
2018-06-07T01:52:11.803Z,21.10
2018-06-07T01:54:40.324Z,21.30
2018-06-07T01:57:08.777Z,20.63
2018-06-07T01:59:37.229Z,20.53
2018-06-07T02:02:05.714Z,20.50
2018-06-07T02:04:34.165Z,21.97
2018-06-07T02:07:02.593Z,22.43
2018-06-07T02:09:31.117Z,21.90
2018-06-07T02:11:59.622Z,20.43
2018-06-07T02:14:28.137Z,20.50
2018-06-07T02:16:56.589Z,19.57
2018-06-07T02:19:25.045Z,20.93
2018-06-07T02:21:53.511Z,21.30
2018-06-07T02:24:22.013Z,20.30
2018-06-07T02:26:50.509Z,21.80
2018-06-07T02:29:18.960Z,20.47
2018-06-07T02:31:47.417Z,22.47
2018-06-07T02:34:15.858Z,19.60
2018-06-07T02:36:44.317Z,21.90
2018-06-07T02:39:12.779Z,20.00
2018-06-07T02:41:41.232Z,19.73
2018-06-07T02:44:09.720Z,22.40
2018-06-07T02:46:37.841Z,21.60
2018-06-07T02:49:06.289Z,24.10
2018-06-07T02:51:34.764Z,21.97
2018-06-07T02:54:03.258Z,23.30
2018-06-07T02:56:31.717Z,22.27
2018-06-07T02:58:59.913Z,21.40
2018-06-07T03:01:28.396Z,22.93
2018-06-07T03:03:59.653Z,23.20
2018-06-07T03:06:28.141Z,21.67
2018-06-07T03:08:56.585Z,21.90
2018-06-07T03:11:25.038Z,22.63
2018-06-07T03:13:53.497Z,22.30
2018-06-07T03:16:21.954Z,22.17
2018-06-07T03:18:50.391Z,21.40
2018-06-07T03:21:18.865Z,22.20
2018-06-07T03:23:47.320Z,22.23
2018-06-07T03:26:16.021Z,21.53
2018-06-07T03:28:44.461Z,21.73
2018-06-07T03:31:12.905Z,21.60
2018-06-07T03:33:41.373Z,20.10
2018-06-07T03:36:09.825Z,21.37
2018-06-07T03:38:38.278Z,21.33
2018-06-07T03:41:06.732Z,21.57
2018-06-07T03:43:35.205Z,19.90
2018-06-07T03:46:10.207Z,21.63
2018-06-07T03:48:38.651Z,21.30
2018-06-07T03:51:07.120Z,22.20
2018-06-07T03:53:35.558Z,21.30
2018-06-07T03:56:04.066Z,20.57
2018-06-07T03:58:32.529Z,21.90
2018-06-07T04:01:00.964Z,20.10
2018-06-07T04:03:29.421Z,20.87
2018-06-07T04:05:57.872Z,20.33
2018-06-07T04:08:26.330Z,20.27
2018-06-07T04:10:54.849Z,21.40
2018-06-07T04:13:23.033Z,20.67
2018-06-07T04:15:51.486Z,20.00
2018-06-07T04:18:19.940Z,19.07
2018-06-07T04:20:48.393Z,20.13
2018-06-07T04:23:16.836Z,20.40
2018-06-07T04:25:45.289Z,19.87
2018-06-07T04:28:13.730Z,21.60
2018-06-07T04:30:42.193Z,19.10
2018-06-07T04:33:10.677Z,21.23
2018-06-07T04:35:39.128Z,23.10
2018-06-07T04:38:07.615Z,22.67
2018-06-07T04:40:36.100Z,23.80
2018-06-07T04:43:04.572Z,24.13
2018-06-07T04:45:33.029Z,23.10
2018-06-07T04:48:01.533Z,23.83
2018-06-07T04:50:29.982Z,24.17
2018-06-07T04:52:58.429Z,22.40
2018-06-07T04:55:26.889Z,24.03
2018-06-07T04:57:55.396Z,23.40
2018-06-07T05:00:23.816Z,25.17
2018-06-07T05:02:52.269Z,23.93
2018-06-07T05:05:20.719Z,24.47
2018-06-07T05:07:49.185Z,23.30
2018-06-07T05:10:17.622Z,24.33
2018-06-07T05:12:46.069Z,25.90
2018-06-07T05:15:14.623Z,25.73
2018-06-07T05:17:43.062Z,26.77
2018-06-07T05:20:11.513Z,25.00
2018-06-07T05:22:39.961Z,25.03
2018-06-07T05:25:08.405Z,23.57
2018-06-07T05:27:36.859Z,22.47
2018-06-07T05:30:05.897Z,23.07
2018-06-07T05:32:34.382Z,21.73
2018-06-07T05:35:02.841Z,22.40
2018-06-07T05:37:31.297Z,23.50
2018-06-07T05:39:59.741Z,22.33
2018-06-07T05:42:28.181Z,22.47
2018-06-07T05:44:56.646Z,24.50
2018-06-07T05:47:25.105Z,23.20
2018-06-07T05:49:53.558Z,23.60
2018-06-07T05:52:22.037Z,23.57
2018-06-07T05:54:50.481Z,27.57
2018-06-07T05:57:18.926Z,30.60
2018-06-07T05:59:47.374Z,31.77
2018-06-07T06:02:15.875Z,21.10
2018-06-07T06:04:44.336Z,21.40
2018-06-07T06:07:12.802Z,21.23
2018-06-07T06:09:41.291Z,22.40
2018-06-07T06:12:09.756Z,20.10
2018-06-07T06:14:38.208Z,20.40
2018-06-07T06:17:06.737Z,20.23
2018-06-07T06:19:35.222Z,21.47
2018-06-07T06:22:03.730Z,20.70
2018-06-07T06:24:32.241Z,20.63
2018-06-07T06:27:00.733Z,19.87
2018-06-07T06:29:29.201Z,20.43
2018-06-07T06:31:57.661Z,20.73
2018-06-07T06:34:26.111Z,19.60
2018-06-07T06:36:54.596Z,19.27
2018-06-07T06:39:23.093Z,19.97
2018-06-07T06:41:51.577Z,27.37
2018-06-07T06:44:20.039Z,33.27
2018-06-07T06:46:48.493Z,31.10
2018-06-07T06:49:16.993Z,31.37
2018-06-07T06:51:45.453Z,31.27
2018-06-07T06:54:13.956Z,30.13
2018-06-07T06:56:42.511Z,30.07
2018-06-07T06:59:10.957Z,31.83
2018-06-07T07:01:39.088Z,29.77
2018-06-07T07:04:07.525Z,32.60
2018-06-07T07:06:35.992Z,30.53
2018-06-07T07:09:06.931Z,17.30
2018-06-07T07:11:36.285Z,16.80
2018-06-07T07:14:04.772Z,17.20
2018-06-07T07:16:33.365Z,16.50
2018-06-07T07:19:01.838Z,15.23
2018-06-07T07:21:30.354Z,17.33
2018-06-07T07:23:58.805Z,17.20
2018-06-07T07:26:27.356Z,17.00
2018-06-07T07:28:56.023Z,15.53
2018-06-07T07:31:24.469Z,16.60
2018-06-07T07:33:52.949Z,17.03
2018-06-07T07:36:21.405Z,17.70
2018-06-07T07:38:49.901Z,16.53
2018-06-07T07:41:18.339Z,16.20
2018-06-07T07:43:46.804Z,17.27
2018-06-07T07:46:15.261Z,16.07
2018-06-07T07:48:43.730Z,16.30
2018-06-07T07:51:12.181Z,17.23
2018-06-07T07:53:40.672Z,18.20
2018-06-07T07:56:09.109Z,18.17
2018-06-07T07:58:37.601Z,18.57
2018-06-07T08:01:06.133Z,17.80
2018-06-07T08:03:34.601Z,17.87
2018-06-07T08:06:03.085Z,17.80
2018-06-07T08:08:31.547Z,17.80
2018-06-07T08:11:00.027Z,17.87
2018-06-07T08:13:28.498Z,16.63
2018-06-07T08:15:56.945Z,17.80
2018-06-07T08:18:25.513Z,17.87
2018-06-07T08:20:53.974Z,16.50
2018-06-07T08:23:22.422Z,17.00
2018-06-07T08:25:50.905Z,17.30
2018-06-07T08:28:19.501Z,19.03
2018-06-07T08:30:49.184Z,17.30
2018-06-07T08:33:17.799Z,17.80
2018-06-07T08:35:46.327Z,17.23
2018-06-07T08:38:14.830Z,17.80
2018-06-07T08:40:43.545Z,17.13
2018-06-07T08:43:12.108Z,18.13
2018-06-07T08:45:40.666Z,19.07
2018-06-07T08:48:09.249Z,16.93
2018-06-07T08:50:37.733Z,17.77
2018-06-07T08:53:06.674Z,19.30
2018-06-07T08:55:35.136Z,18.60
2018-06-07T08:58:03.638Z,17.80
2018-06-07T09:00:32.149Z,17.37
2018-06-07T09:03:00.565Z,17.57
2018-06-07T09:05:29.028Z,16.67
2018-06-07T09:07:57.520Z,16.73
2018-06-07T09:10:26.007Z,18.23
2018-06-07T09:12:54.454Z,18.30
2018-06-07T09:15:22.901Z,18.97
2018-06-07T09:17:51.652Z,17.53
2018-06-07T09:20:20.146Z,17.03
2018-06-07T09:22:48.589Z,16.40
2018-06-07T09:25:17.037Z,17.17
2018-06-07T09:27:45.540Z,16.77
2018-06-07T09:30:14.013Z,17.43
2018-06-07T09:32:42.453Z,17.40
2018-06-07T09:35:10.913Z,17.80
2018-06-07T09:37:39.358Z,18.13
2018-06-07T09:40:07.801Z,18.20
2018-06-07T09:42:36.303Z,18.73
2018-06-07T09:45:04.761Z,16.97
2018-06-07T09:47:33.234Z,17.00
2018-06-07T09:50:01.694Z,17.70
2018-06-07T09:52:30.156Z,16.77
2018-06-07T09:54:58.604Z,18.37
2018-06-07T09:57:27.129Z,18.43
2018-06-07T09:59:55.628Z,18.13
2018-06-07T10:02:24.074Z,17.60
2018-06-07T10:04:52.576Z,17.33
2018-06-07T10:07:20.720Z,16.83
2018-06-07T10:09:49.254Z,15.57
2018-06-07T10:12:17.761Z,14.60
2018-06-07T10:14:46.215Z,13.67
2018-06-07T10:17:14.668Z,13.53
2018-06-07T10:19:43.154Z,14.10
2018-06-07T10:22:11.654Z,12.37
2018-06-07T10:24:40.149Z,12.73
2018-06-07T10:27:09.808Z,13.37
2018-06-07T10:29:38.319Z,12.73
2018-06-07T10:32:06.778Z,12.47
2018-06-07T10:34:35.237Z,12.00
2018-06-07T10:37:04.196Z,12.20
2018-06-07T10:39:32.674Z,13.23
2018-06-07T10:42:01.307Z,24.60
2018-06-07T10:44:29.755Z,21.53
2018-06-07T10:46:58.296Z,22.70
2018-06-07T10:49:26.733Z,23.40
2018-06-07T10:51:55.273Z,12.37
2018-06-07T10:54:23.746Z,12.20
2018-06-07T10:56:52.189Z,12.93
2018-06-07T10:59:20.771Z,12.53
2018-06-07T11:01:49.237Z,11.70
2018-06-07T11:04:17.741Z,12.07
2018-06-07T11:06:46.253Z,12.47
2018-06-07T11:09:14.693Z,11.73
2018-06-07T11:11:43.176Z,12.70
2018-06-07T11:14:11.630Z,12.47
2018-06-07T11:16:40.096Z,13.63
2018-06-07T11:19:08.541Z,14.17
2018-06-07T11:21:37.024Z,15.20
2018-06-07T11:24:05.502Z,13.50
2018-06-07T11:26:33.961Z,12.73
2018-06-07T11:29:02.559Z,12.97
2018-06-07T11:31:31.056Z,12.80
2018-06-07T11:33:59.489Z,14.17
2018-06-07T11:36:27.947Z,14.43
2018-06-07T11:38:56.396Z,15.67
2018-06-07T11:41:24.848Z,14.13
2018-06-07T11:43:53.431Z,14.87
2018-06-07T11:46:21.913Z,13.50
2018-06-07T11:48:50.421Z,13.13
2018-06-07T11:51:18.958Z,14.43
2018-06-07T11:53:47.421Z,14.20
2018-06-07T11:56:15.905Z,23.73
2018-06-07T11:58:44.359Z,15.10
2018-06-07T12:01:12.902Z,12.60
2018-06-07T12:03:41.434Z,14.80
2018-06-07T12:06:09.919Z,13.80
2018-06-07T12:08:38.028Z,13.63
2018-06-07T12:11:06.493Z,13.70
2018-06-07T12:13:34.994Z,14.77
2018-06-07T12:16:03.791Z,14.67
2018-06-07T12:18:32.282Z,15.03
2018-06-07T12:21:00.753Z,14.80
2018-06-07T12:23:29.236Z,14.90
2018-06-07T12:25:57.688Z,14.40
2018-06-07T12:28:26.141Z,14.77
2018-06-07T12:30:54.593Z,13.07
2018-06-07T12:33:23.045Z,13.93
2018-06-07T12:35:51.521Z,13.47
2018-06-07T12:38:19.965Z,14.27
2018-06-07T12:40:48.445Z,13.40
2018-06-07T12:43:16.904Z,13.50
2018-06-07T12:45:45.362Z,14.70
2018-06-07T12:48:13.810Z,13.40
2018-06-07T12:50:42.285Z,14.10
2018-06-07T12:53:10.753Z,11.90
2018-06-07T12:55:39.239Z,12.90
2018-06-07T12:58:07.688Z,12.63
2018-06-07T13:00:36.171Z,12.13
2018-06-07T13:03:04.657Z,12.17
2018-06-07T13:05:33.109Z,10.10
2018-06-07T13:08:01.561Z,10.63
2018-06-07T13:10:30.049Z,10.50
2018-06-07T13:12:58.489Z,10.37
2018-06-07T13:15:26.952Z,10.70
2018-06-07T13:17:55.392Z,11.53
2018-06-07T13:20:23.857Z,10.73
2018-06-07T13:22:52.297Z,10.57
2018-06-07T13:25:20.737Z,9.77
2018-06-07T13:27:49.213Z,10.60
2018-06-07T13:30:17.685Z,10.40
2018-06-07T13:32:46.161Z,9.70
2018-06-07T13:35:14.599Z,10.70
2018-06-07T13:37:42.777Z,9.53
2018-06-07T13:40:10.960Z,10.47
2018-06-07T13:42:39.396Z,10.20
2018-06-07T13:45:08.033Z,10.47
2018-06-07T13:47:36.203Z,10.27
2018-06-07T13:50:05.161Z,10.17
2018-06-07T13:52:33.649Z,10.80
2018-06-07T13:55:02.145Z,11.47
2018-06-07T13:57:30.604Z,10.10
2018-06-07T13:59:59.057Z,9.90
2018-06-07T14:02:27.521Z,10.07
2018-06-07T14:04:55.977Z,9.80
2018-06-07T14:07:24.448Z,9.77
2018-06-07T14:09:52.897Z,9.90
2018-06-07T14:12:21.373Z,9.97
2018-06-07T14:14:49.905Z,9.80
2018-06-07T14:17:18.442Z,10.20
2018-06-07T14:19:47.044Z,9.67
2018-06-07T14:22:15.485Z,16.67
2018-06-07T14:24:43.969Z,9.60
2018-06-07T14:27:12.401Z,9.90
2018-06-07T14:29:40.885Z,9.13
2018-06-07T14:32:09.399Z,9.37
2018-06-07T14:34:37.941Z,9.57
2018-06-07T14:37:06.449Z,9.50
2018-06-07T14:39:34.917Z,9.63
2018-06-07T14:42:03.397Z,10.20
2018-06-07T14:44:31.900Z,9.40
2018-06-07T14:47:00.340Z,10.20
2018-06-07T14:49:28.781Z,9.83
2018-06-07T14:51:57.316Z,10.00
2018-06-07T14:54:25.760Z,9.60
2018-06-07T14:56:54.208Z,8.43
2018-06-07T14:59:22.656Z,9.10
2018-06-07T15:01:50.852Z,9.23
2018-06-07T15:04:19.325Z,10.03
2018-06-07T15:06:47.785Z,10.17
2018-06-07T15:09:16.249Z,9.70
2018-06-07T15:11:44.802Z,9.37
2018-06-07T15:14:13.276Z,9.27
2018-06-07T15:16:41.717Z,9.70
2018-06-07T15:19:10.157Z,9.50
2018-06-07T15:21:38.658Z,8.93
2018-06-07T15:24:07.097Z,9.93
2018-06-07T15:26:35.711Z,9.63
2018-06-07T15:29:04.221Z,9.37
2018-06-07T15:31:32.357Z,9.60
2018-06-07T15:34:00.855Z,9.37
2018-06-07T15:36:29.483Z,10.40
2018-06-07T15:38:57.935Z,9.80
2018-06-07T15:41:26.497Z,10.80
2018-06-07T15:43:54.961Z,9.93
2018-06-07T15:46:23.646Z,10.27
2018-06-07T15:48:52.089Z,10.10
2018-06-07T15:51:20.296Z,10.97
2018-06-07T15:53:48.937Z,10.30
2018-06-07T15:56:17.718Z,9.10
2018-06-07T15:58:45.897Z,9.80
2018-06-07T16:01:14.637Z,9.70
2018-06-07T16:03:43.094Z,9.93
2018-06-07T16:06:11.571Z,9.37
2018-06-07T16:08:40.130Z,9.83
2018-06-07T16:11:08.309Z,22.53
2018-06-07T16:13:36.761Z,9.50
2018-06-07T16:16:05.237Z,10.47
2018-06-07T16:18:33.713Z,10.07
2018-06-07T16:21:02.173Z,10.07
2018-06-07T16:23:30.644Z,10.10
2018-06-07T16:25:59.185Z,10.30
2018-06-07T16:28:27.645Z,9.70
2018-06-07T16:30:56.460Z,9.17
2018-06-07T16:33:24.931Z,31.43
2018-06-07T16:35:53.389Z,11.87
2018-06-07T16:38:22.055Z,15.20
2018-06-07T16:40:50.589Z,14.30
2018-06-07T16:43:19.044Z,14.60
2018-06-07T16:45:47.492Z,14.60
2018-06-07T16:48:16.124Z,10.73
2018-06-07T16:50:44.629Z,11.00
2018-06-07T16:53:13.121Z,9.70
2018-06-07T16:55:41.572Z,26.50
2018-06-07T16:58:10.150Z,26.00
2018-06-07T17:00:38.669Z,21.70
2018-06-07T17:03:07.129Z,20.63
2018-06-07T17:05:35.674Z,11.77
2018-06-07T17:08:04.192Z,10.23
2018-06-07T17:10:32.344Z,11.13
2018-06-07T17:13:00.836Z,10.30
2018-06-07T17:15:29.289Z,10.27
2018-06-07T17:17:57.809Z,11.00
2018-06-07T17:20:26.349Z,11.60
2018-06-07T17:22:54.826Z,10.43
2018-06-07T17:25:23.326Z,12.10
2018-06-07T17:27:51.810Z,10.40
2018-06-07T17:30:20.296Z,10.40
2018-06-07T17:32:48.769Z,10.47
2018-06-07T17:35:17.248Z,10.60
2018-06-07T17:37:45.705Z,9.90
2018-06-07T17:40:14.189Z,11.37
2018-06-07T17:42:42.682Z,10.17
2018-06-07T17:45:11.177Z,11.10
2018-06-07T17:47:39.625Z,11.10
2018-06-07T17:50:08.068Z,11.27
2018-06-07T17:52:36.565Z,11.97
2018-06-07T17:55:05.341Z,11.30
2018-06-07T17:57:33.789Z,11.40
2018-06-07T18:00:02.265Z,11.10
2018-06-07T18:02:30.777Z,13.63
2018-06-07T18:04:59.257Z,13.47
2018-06-07T18:07:27.717Z,11.40
2018-06-07T18:09:56.178Z,12.93
2018-06-07T18:12:24.690Z,11.50
2018-06-07T18:14:53.197Z,11.20
2018-06-07T18:17:21.687Z,11.97
2018-06-07T18:19:50.105Z,10.70
2018-06-07T18:22:18.600Z,10.57
2018-06-07T18:24:47.074Z,11.00
2018-06-07T18:27:15.565Z,11.23
2018-06-07T18:29:44.018Z,10.60
2018-06-07T18:32:12.550Z,12.10
2018-06-07T18:34:41.040Z,11.30
2018-06-07T18:37:09.485Z,11.63
2018-06-07T18:39:37.950Z,11.50
2018-06-07T18:42:06.486Z,12.30
2018-06-07T18:44:35.009Z,11.93
2018-06-07T18:47:03.474Z,11.23
2018-06-07T18:49:32.026Z,12.17
2018-06-07T18:52:00.491Z,11.40
2018-06-07T18:54:28.984Z,11.70
2018-06-07T18:56:57.485Z,10.80
2018-06-07T18:59:25.955Z,11.07
2018-06-07T19:01:54.118Z,11.63
2018-06-07T19:04:22.565Z,12.07
2018-06-07T19:06:51.033Z,11.60
2018-06-07T19:09:24.773Z,11.47
2018-06-07T19:11:53.237Z,11.50
2018-06-07T19:14:26.981Z,10.80
2018-06-07T19:16:55.467Z,11.50
2018-06-07T19:19:29.185Z,12.47
2018-06-07T19:21:57.637Z,28.57
2018-06-07T19:24:26.350Z,37.63
2018-06-07T19:27:00.222Z,12.43
2018-06-07T19:29:28.705Z,12.67
2018-06-07T19:32:02.550Z,11.73
2018-06-07T19:34:36.236Z,12.10
2018-06-07T19:37:04.469Z,12.20
2018-06-07T19:39:38.304Z,11.37
2018-06-07T19:42:08.885Z,12.03
2018-06-07T19:44:37.489Z,12.37
2018-06-07T19:47:06.265Z,12.87
2018-06-07T19:49:34.834Z,12.13
2018-06-07T19:52:03.297Z,13.00
2018-06-07T19:54:31.785Z,11.97
2018-06-07T19:57:00.241Z,12.40
2018-06-07T19:59:28.819Z,13.00
2018-06-07T20:01:57.326Z,13.17
2018-06-07T20:04:25.809Z,13.03
2018-06-07T20:06:54.278Z,13.00
2018-06-07T20:09:22.413Z,12.90
2018-06-07T20:11:50.871Z,12.23
2018-06-07T20:14:19.351Z,12.80
2018-06-07T20:16:47.819Z,11.83
2018-06-07T20:19:16.269Z,13.43
2018-06-07T20:21:44.445Z,12.83
2018-06-07T20:24:12.906Z,13.63
2018-06-07T20:26:41.449Z,13.03
2018-06-07T20:29:09.909Z,12.33
2018-06-07T20:31:38.368Z,11.73
2018-06-07T20:34:06.825Z,12.77
2018-06-07T20:36:35.289Z,12.53
2018-06-07T20:39:06.069Z,13.50
2018-06-07T20:41:34.589Z,12.70
2018-06-07T20:44:03.109Z,11.87
2018-06-07T20:46:31.595Z,13.10
2018-06-07T20:49:00.061Z,12.33
2018-06-07T20:51:28.537Z,12.30
2018-06-07T20:53:56.999Z,11.87
2018-06-07T20:56:25.545Z,12.53
2018-06-07T20:58:54.016Z,12.60
2018-06-07T21:01:22.157Z,11.83
2018-06-07T21:03:50.681Z,11.47
2018-06-07T21:06:19.137Z,12.10
2018-06-07T21:08:47.613Z,11.50
2018-06-07T21:11:16.058Z,11.47
2018-06-07T21:13:44.522Z,12.17
2018-06-07T21:16:12.964Z,11.30
2018-06-07T21:18:41.409Z,12.17
2018-06-07T21:21:09.940Z,13.57
2018-06-07T21:23:38.385Z,12.67
2018-06-07T21:26:06.894Z,12.60
2018-06-07T21:28:35.337Z,11.30
2018-06-07T21:31:03.812Z,11.47
2018-06-07T21:33:32.286Z,27.20
2018-06-07T21:36:00.738Z,27.40
2018-06-07T21:38:29.473Z,11.67
2018-06-07T21:40:57.962Z,12.27
2018-06-07T21:43:26.463Z,11.93
2018-06-07T21:45:54.918Z,12.63
2018-06-07T21:48:23.425Z,13.63
2018-06-07T21:50:51.926Z,12.30
2018-06-07T21:53:20.369Z,12.50
2018-06-07T21:55:48.812Z,12.27
2018-06-07T21:58:17.274Z,11.83
2018-06-07T22:00:45.741Z,12.10
2018-06-07T22:03:14.185Z,12.17
2018-06-07T22:05:42.633Z,11.80
2018-06-07T22:08:11.093Z,12.97
2018-06-07T22:10:39.591Z,12.47
2018-06-07T22:13:08.068Z,11.77
2018-06-07T22:15:36.509Z,11.90
2018-06-07T22:18:05.079Z,12.60
2018-06-07T22:20:33.582Z,12.67
2018-06-07T22:23:02.047Z,15.83
2018-06-07T22:25:30.489Z,11.10
2018-06-07T22:27:59.002Z,11.03
2018-06-07T22:30:27.459Z,12.10
2018-06-07T22:32:55.984Z,11.80
2018-06-07T22:35:24.522Z,12.40
2018-06-07T22:37:52.976Z,24.53
2018-06-07T22:40:21.413Z,12.13
2018-06-07T22:42:49.869Z,11.47
2018-06-07T22:45:18.333Z,11.47
2018-06-07T22:47:46.770Z,11.90
2018-06-07T22:50:14.970Z,13.00
2018-06-07T22:52:43.411Z,11.47
2018-06-07T22:55:11.931Z,24.80
2018-06-07T22:57:40.409Z,11.20
2018-06-07T23:00:08.911Z,11.80
2018-06-07T23:02:38.322Z,11.70
2018-06-07T23:05:06.837Z,10.90
2018-06-07T23:07:35.318Z,10.97
2018-06-07T23:10:03.837Z,11.70
2018-06-07T23:12:32.295Z,11.50
2018-06-07T23:15:00.897Z,11.23
2018-06-07T23:17:29.408Z,11.10
2018-06-07T23:19:57.869Z,11.30
2018-06-07T23:22:26.333Z,10.70
2018-06-07T23:24:54.460Z,20.40
2018-06-07T23:27:23.037Z,12.20
2018-06-07T23:29:51.497Z,10.70
2018-06-07T23:32:19.989Z,11.30
2018-06-07T23:34:48.481Z,13.37
2018-06-07T23:37:16.985Z,12.10
2018-06-07T23:39:45.485Z,12.03
2018-06-07T23:42:13.949Z,12.60
2018-06-07T23:44:42.393Z,12.07
2018-06-07T23:47:11.021Z,12.50
2018-06-07T23:49:39.461Z,12.13
2018-06-07T23:52:07.993Z,13.10
2018-06-07T23:54:36.453Z,13.00
2018-06-07T23:57:04.909Z,13.50
2018-06-07T23:59:33.350Z,12.70
